Our Hubs

Gdansk im. Lecha Walesy
EPGD 192130Z 13002KT 8000 BKN043 M01/M03 Q1023
Warszawa im. Chopina
EPWA 192130Z 11003KT CAVOK M01/M06 Q1023 NOSIG
  • EPWAAirport ICAO
  • Damian BelicaHUB Manager
  • SP-GLO , SP-OSO , SP-JOP , SP-WAW , LC-LXY , SP-OSPAircraft Based
  • ViewStats
Katowice Pyrzowice
EPKT 192130Z 08006KT CAVOK M05/M08 Q1019
  • EPKTAirport ICAO
  • Rafal PiotrowskiHUB Manager
  • SP-GSA , SP-WOD , SP-ASA , SP-MVM , SP-JJJAircraft Based
  • ViewStats
Dublin
EIDW 192130Z 31010KT 9999 FEW008 SCT015 BKN040 07/05 Q1021 NOSIG